Terminal Aerodrome Forecast
Issued by NWS

Home | Current Version | Previous Version | Text Only | Print | Product List | Glossary On
Versions: 1 2 3 4 5 6 7 8 9 10 11 12 13
356
FTUS45 KRIW 261720
TAFBPI
TAF
KBPI 261720Z 2618/2718 VRB04KT P6SM SCT050 SCT150
     FM262000 24008KT P6SM FEW050 BKN150
     FM270300 17007KT P6SM SCT030 BKN070
     FM270800 16006KT P6SM VCSH BKN035
     FM271600 24007KT P6SM SCT035 BKN150=

USA.gov is the U.S. government's official web portal to all federal, state and local government web resources and services.